Time;durP1;ratioP1;P1;durP2;ratioP2;P2;SDS_P1;SDS_P2;PMS_P1;PMS_P2;Temp;Humidity;BMP_temperature;BMP_pressure;BME280_temperature;BME280_humidity;BME280_pressure;Samples;Min_cycle;Max_cycle;Signal;HPM_P1;HPM_P2
2023/06/10 00:00:31;;;;;;;;;;;;;;;20.73;85.97;99485.47;4499858;31;34244;-86
2023/06/10 00:02:59;;;;;;;;;;;;;;;20.39;86.97;99477.56;4498220;31;31604;-84
2023/06/10 00:05:29;;;;;;;;;;;;;;;19.78;91.51;99474.00;4490313;31;34856;-89
2023/06/10 00:07:57;;;;;;;;;;;;;;;19.54;93.50;99476.53;4498851;31;33307;-87
2023/06/10 00:10:24;;;;;;;;;;;;;;;19.38;95.08;99472.97;4476283;31;33904;-86
2023/06/10 00:12:51;;;;;;;;;;;;;;;19.14;96.97;99476.34;4493594;31;31954;-88
2023/06/10 00:15:19;;;;;;;;;;;;;;;19.31;95.57;99472.06;4488227;31;33937;-84
2023/06/10 00:17:46;;;;;;;;;;;;;;;19.17;96.80;99474.63;4462880;32;33979;-86
2023/06/10 00:20:14;;;;;;;;;;;;;;;19.19;95.64;99462.38;4496705;31;33979;-89
2023/06/10 00:22:45;;;;;;;;;;;;;;;19.44;nan;99473.84;4487557;31;34003;-88
2023/06/10 00:25:13;;;;;;;;;;;;;;;20.12;89.43;99474.03;4496404;31;34604;-89
2023/06/10 00:27:40;;;;;;;;;;;;;;;20.62;85.57;99470.56;4499235;31;34029;-89
2023/06/10 00:30:08;;;;;;;;;;;;;;;19.47;91.58;99462.50;4499659;31;34255;-87
2023/06/10 00:32:36;;;;;;;;;;;;;;;19.12;95.02;99462.34;4482560;32;33073;-89
2023/06/10 00:35:03;;;;;;;;;;;;;;;18.69;98.08;99465.56;4488498;31;34203;-89
2023/06/10 00:37:32;;;;;;;;;;;;;;;18.67;99.31;99462.06;4484861;31;33407;-91
2023/06/10 00:39:59;;;;;;;;;;;;;;;18.71;99.07;99473.47;4485422;31;34277;-86
2023/06/10 00:42:27;;;;;;;;;;;;;;;19.77;91.93;99469.59;4498148;31;33291;-86
2023/06/10 00:44:55;;;;;;;;;;;;;;;18.78;97.76;99476.13;4499434;31;33753;-87
2023/06/10 00:47:22;;;;;;;;;;;;;;;18.75;98.02;99473.47;4491277;31;32100;-89
2023/06/10 00:49:50;;;;;;;;;;;;;;;18.87;97.12;99477.94;4495382;31;34503;-87
2023/06/10 00:52:17;;;;;;;;;;;;;;;18.63;99.04;99476.91;4497771;31;33423;-88
2023/06/10 00:54:45;;;;;;;;;;;;;;;18.68;98.96;99474.31;4497690;31;34127;-86
2023/06/10 00:57:14;;;;;;;;;;;;;;;18.74;100.00;99473.50;4497302;31;33710;-87
2023/06/10 00:59:42;;;;;;;;;;;;;;;19.10;96.36;99475.47;4488656;31;35127;-87
2023/06/10 01:02:10;;;;;;;;;;;;;;;19.66;92.69;99473.91;4485143;31;33001;-87
2023/06/10 01:04:37;;;;;;;;;;;;;;;19.55;92.66;99480.94;4490099;31;33571;-89
2023/06/10 01:07:20;;;;;;;;;;;;;;;20.13;87.82;99470.53;4483772;31;33146;-86
2023/06/10 01:09:59;;;;;;;;;;;;;;;20.22;86.87;99475.81;4486543;31;34066;-84
2023/06/10 01:12:29;;;;;;;;;;;;;;;19.76;89.09;99481.00;4497427;31;32933;-89
2023/06/10 01:14:57;;;;;;;;;;;;;;;19.49;91.43;99479.16;4489885;31;35581;-86
2023/06/10 01:17:27;;;;;;;;;;;;;;;19.19;93.73;99477.25;4470973;31;33372;-86
2023/06/10 01:19:55;;;;;;;;;;;;;;;18.97;96.23;99477.16;4472920;31;34869;-84
2023/06/10 01:22:23;;;;;;;;;;;;;;;18.84;96.90;99477.97;4496535;31;33335;-85
2023/06/10 01:24:52;;;;;;;;;;;;;;;18.83;97.82;99478.81;4498545;31;33984;-87
2023/06/10 01:27:19;;;;;;;;;;;;;;;18.78;97.68;99477.88;4491421;31;34790;-88
2023/06/10 01:29:52;;;;;;;;;;;;;;;18.50;100.00;99477.69;4481850;31;34187;-87
2023/06/10 01:32:27;;;;;;;;;;;;;;;18.59;100.00;99475.13;4497115;31;32836;-86
2023/06/10 01:34:55;;;;;;;;;;;;;;;19.11;95.70;99476.34;4497077;31;33910;-87
2023/06/10 01:37:23;;;;;;;;;;;;;;;19.56;92.38;99477.41;4494599;31;34559;-88
2023/06/10 01:39:50;;;;;;;;;;;;;;;20.09;88.49;99479.31;4487004;31;34972;-88
2023/06/10 01:42:18;;;;;;;;;;;;;;;19.97;89.35;99479.28;4470675;31;32633;-87
2023/06/10 01:44:45;;;;;;;;;;;;;;;19.67;90.16;99480.06;4494474;31;33823;-86
2023/06/10 01:47:12;;;;;;;;;;;;;;;19.16;93.43;99477.25;4490314;31;34012;-89
2023/06/10 01:49:40;;;;;;;;;;;;;;;19.85;89.63;99482.75;4499552;31;34756;-89
2023/06/10 01:52:07;;;;;;;;;;;;;;;20.62;83.90;99483.72;4501361;31;34698;-90
2023/06/10 01:54:34;;;;;;;;;;;;;;;20.74;82.46;99479.31;4495453;31;33761;-87
2023/06/10 01:57:02;;;;;;;;;;;;;;;20.77;81.91;99479.31;4497733;31;33671;-89
2023/06/10 01:59:30;;;;;;;;;;;;;;;20.73;82.34;99482.84;4500761;31;34048;-88
2023/06/10 02:01:57;;;;;;;;;;;;;;;20.86;81.34;99476.69;4501248;31;33350;-86
2023/06/10 02:04:24;;;;;;;;;;;;;;;20.28;83.46;99468.78;4472209;32;34683;-86
2023/06/10 02:06:53;;;;;;;;;;;;;;;19.38;90.80;99479.09;4490839;31;33639;-87
2023/06/10 02:09:22;;;;;;;;;;;;;;;19.27;92.20;99470.28;4501550;31;34136;-86
2023/06/10 02:11:50;;;;;;;;;;;;;;;19.18;92.52;99465.00;4475640;32;31668;-88
2023/06/10 02:14:17;;;;;;;;;;;;;;;18.70;96.03;99466.44;4497567;31;34669;-87
2023/06/10 02:16:46;;;;;;;;;;;;;;;18.97;94.84;99466.66;4489912;31;33780;-90
2023/06/10 02:19:14;;;;;;;;;;;;;;;19.11;93.58;99468.47;4484294;32;32507;-87
2023/06/10 02:21:41;;;;;;;;;;;;;;;19.86;88.96;99474.03;4486020;32;33390;-90
2023/06/10 02:24:09;;;;;;;;;;;;;;;19.92;87.25;99478.41;4487407;31;33872;-88
2023/06/10 02:26:36;;;;;;;;;;;;;;;19.03;92.38;99482.44;4497429;31;34044;-85
2023/06/10 02:29:04;;;;;;;;;;;;;;;18.40;97.03;99484.59;4499744;31;34967;-85
2023/06/10 02:31:31;;;;;;;;;;;;;;;18.37;98.20;99478.44;4495872;31;31420;-89
2023/06/10 02:33:59;;;;;;;;;;;;;;;18.15;99.85;99478.25;4499212;31;34898;-90
2023/06/10 02:36:27;;;;;;;;;;;;;;;19.38;90.18;99483.47;4500018;31;34240;-85
2023/06/10 02:38:55;;;;;;;;;;;;;;;19.94;85.16;99469.66;4499061;31;35039;-90
2023/06/10 02:41:24;;;;;;;;;;;;;;;20.16;82.67;99475.78;4501621;31;33293;-85
2023/06/10 02:43:52;;;;;;;;;;;;;;;19.93;83.93;99477.53;4492281;31;33514;-87
2023/06/10 02:46:20;;;;;;;;;;;;;;;20.03;82.62;99474.06;4500476;31;33451;-87
2023/06/10 02:48:49;;;;;;;;;;;;;;;19.99;82.96;99473.16;4490090;31;33021;-87
2023/06/10 02:51:17;;;;;;;;;;;;;;;18.84;88.92;99481.44;4477228;31;31675;-87
2023/06/10 02:53:45;;;;;;;;;;;;;;;19.46;86.24;99487.00;4492899;31;34266;-89
2023/06/10 02:56:15;;;;;;;;;;;;;;;19.89;83.95;99491.53;4497355;31;34875;-86
2023/06/10 02:58:43;;;;;;;;;;;;;;;19.88;83.40;99489.81;4488140;31;34317;-87
2023/06/10 03:01:11;;;;;;;;;;;;;;;18.54;91.44;99484.69;4498033;31;32903;-88
2023/06/10 03:03:42;;;;;;;;;;;;;;;18.42;94.09;99487.25;4498682;31;34749;-89
2023/06/10 03:06:10;;;;;;;;;;;;;;;18.72;92.72;99485.72;4499299;31;33966;-85
2023/06/10 03:08:38;;;;;;;;;;;;;;;19.17;90.69;99492.13;4494078;31;32618;-84
2023/06/10 03:11:06;;;;;;;;;;;;;;;19.73;86.34;99491.50;4500237;31;34026;-85
2023/06/10 03:13:34;;;;;;;;;;;;;;;19.74;85.75;99488.00;4499924;31;35060;-87
2023/06/10 03:16:03;;;;;;;;;;;;;;;19.43;87.02;99493.13;4490971;31;34754;-87
2023/06/10 03:18:31;;;;;;;;;;;;;;;19.63;85.79;99484.44;4489703;31;34246;-90
2023/06/10 03:20:58;;;;;;;;;;;;;;;18.33;93.33;99492.41;4492813;31;32353;-86
2023/06/10 03:23:27;;;;;;;;;;;;;;;18.75;92.71;99496.22;4493470;31;34949;-84
2023/06/10 03:25:55;;;;;;;;;;;;;;;19.11;89.76;99489.50;4500605;31;34731;-86
2023/06/10 03:28:23;;;;;;;;;;;;;;;18.61;92.45;99494.38;4495547;31;33057;-88
2023/06/10 03:30:51;;;;;;;;;;;;;;;19.79;84.66;99495.91;4495753;31;33271;-88
2023/06/10 03:33:19;;;;;;;;;;;;;;;19.79;83.86;99496.78;4486836;31;33779;-86
2023/06/10 03:35:47;;;;;;;;;;;;;;;20.12;81.77;99488.94;4487379;31;34202;-87
2023/06/10 03:38:14;;;;;;;;;;;;;;;20.12;82.12;99491.56;4498941;31;34344;-85
2023/06/10 03:40:42;;;;;;;;;;;;;;;19.84;83.08;99496.78;4499248;31;33298;-85
2023/06/10 03:43:10;;;;;;;;;;;;;;;19.60;84.50;99501.06;4495762;31;34262;-90
2023/06/10 03:45:37;;;;;;;;;;;;;;;18.92;88.82;99501.62;4500895;31;34804;-90
2023/06/10 03:48:06;;;;;;;;;;;;;;;18.92;89.73;99499.88;4493481;31;33391;-86
2023/06/10 03:50:36;;;;;;;;;;;;;;;18.93;89.58;99506.88;4496497;31;34502;-89
2023/06/10 03:53:03;;;;;;;;;;;;;;;18.56;92.06;99506.59;4495692;31;34192;-87
2023/06/10 03:55:31;;;;;;;;;;;;;;;18.48;93.36;99497.78;4490690;31;33427;-90
2023/06/10 03:57:59;;;;;;;;;;;;;;;18.36;95.08;99502.94;4487657;31;34282;-85
2023/06/10 04:00:45;;;;;;;;;;;;;;;18.48;94.38;99503.00;4498637;31;33704;-86
2023/06/10 04:03:14;;;;;;;;;;;;;;;18.55;94.79;99502.22;4499212;31;34771;-89
2023/06/10 04:05:42;;;;;;;;;;;;;;;19.37;90.21;99498.37;4499905;31;33344;-87
2023/06/10 04:08:10;;;;;;;;;;;;;;;19.09;90.74;99502.59;4499033;31;35101;-87
2023/06/10 04:10:37;;;;;;;;;;;;;;;18.64;93.36;99489.16;4499339;31;32879;-88
2023/06/10 04:13:06;;;;;;;;;;;;;;;18.73;93.85;99495.34;4497747;31;33686;-89
2023/06/10 04:15:34;;;;;;;;;;;;;;;19.31;90.23;99482.56;4499581;31;34101;-89
2023/06/10 04:18:02;;;;;;;;;;;;;;;19.64;88.52;99488.81;4487538;31;34292;-85
2023/06/10 04:20:30;;;;;;;;;;;;;;;19.54;89.27;99490.53;4491265;31;33688;-89
2023/06/10 04:22:57;;;;;;;;;;;;;;;19.76;88.35;99481.00;4500807;31;32719;-84
2023/06/10 04:25:26;;;;;;;;;;;;;;;19.68;88.96;99492.31;4475499;32;33908;-89
2023/06/10 04:27:53;;;;;;;;;;;;;;;19.40;90.71;99487.84;4491627;31;34129;-89
2023/06/10 04:30:21;;;;;;;;;;;;;;;19.21;93.23;99491.28;4498300;31;33228;-89
2023/06/10 04:32:48;;;;;;;;;;;;;;;19.07;94.57;99492.97;4481075;31;34039;-84
2023/06/10 04:35:16;;;;;;;;;;;;;;;19.13;94.60;99480.72;4497483;31;33936;-91
2023/06/10 04:37:44;;;;;;;;;;;;;;;19.00;96.08;99487.66;4489616;31;33344;-88
2023/06/10 04:40:12;;;;;;;;;;;;;;;19.18;94.82;99486.00;4488323;31;31623;-86
2023/06/10 04:42:40;;;;;;;;;;;;;;;19.40;93.35;99482.59;4483184;31;33519;-85
2023/06/10 04:45:07;;;;;;;;;;;;;;;19.27;95.33;99483.41;4490550;31;33978;-88
2023/06/10 04:47:35;;;;;;;;;;;;;;;19.42;93.37;99480.84;4480103;31;33997;-87
2023/06/10 04:50:05;;;;;;;;;;;;;;;19.68;92.53;99482.69;4497838;31;32043;-87
2023/06/10 04:52:33;;;;;;;;;;;;;;;20.31;89.34;99479.31;4495256;31;33665;-89
2023/06/10 04:55:01;;;;;;;;;;;;;;;20.48;88.05;99481.97;4493879;31;34211;-85
2023/06/10 04:57:29;;;;;;;;;;;;;;;20.76;86.44;99488.06;4497881;31;33955;-88
2023/06/10 04:59:56;;;;;;;;;;;;;;;20.53;87.79;99483.72;4500181;31;33305;-87
2023/06/10 05:02:23;;;;;;;;;;;;;;;20.95;85.55;99483.66;4489823;31;34121;-90
2023/06/10 05:04:53;;;;;;;;;;;;;;;21.13;84.88;99488.88;4496972;31;34060;-86
2023/06/10 05:07:20;;;;;;;;;;;;;;;21.24;84.07;99483.56;4490058;31;34177;-89
2023/06/10 05:09:47;;;;;;;;;;;;;;;20.63;84.32;99492.50;4484233;32;33472;-88
2023/06/10 05:12:15;;;;;;;;;;;;;;;20.27;86.06;99493.34;4497990;31;33391;-88
2023/06/10 05:14:42;;;;;;;;;;;;;;;20.34;86.88;99489.81;4493533;31;33927;-87
2023/06/10 05:17:09;;;;;;;;;;;;;;;20.86;84.88;99495.09;4498245;31;34485;-86
2023/06/10 05:19:37;;;;;;;;;;;;;;;21.50;80.82;99493.16;4499773;31;33428;-88
2023/06/10 05:22:04;;;;;;;;;;;;;;;21.24;82.19;99504.63;4497902;31;32177;-91
2023/06/10 05:24:31;;;;;;;;;;;;;;;21.95;80.07;99496.44;4477198;32;32439;-88
2023/06/10 05:26:59;;;;;;;;;;;;;;;21.25;83.46;99501.12;4498449;31;33963;-88
2023/06/10 05:29:26;;;;;;;;;;;;;;;21.79;81.42;99499.16;4501791;31;33764;-87
2023/06/10 05:31:56;;;;;;;;;;;;;;;22.06;80.34;99505.16;4489702;31;34205;-88
2023/06/10 05:34:24;;;;;;;;;;;;;;;21.60;81.64;99502.78;4498019;31;33712;-86
2023/06/10 05:36:51;;;;;;;;;;;;;;;22.22;79.20;99505.91;4490774;31;33369;-90
2023/06/10 05:39:18;;;;;;;;;;;;;;;22.45;78.07;99496.97;4486727;31;33921;-88
2023/06/10 05:41:46;;;;;;;;;;;;;;;22.02;80.08;99497.25;4485275;31;33331;-87
2023/06/10 05:44:13;;;;;;;;;;;;;;;22.75;76.59;99491.44;4487719;31;34286;-88
2023/06/10 05:46:40;;;;;;;;;;;;;;;22.90;75.52;99500.94;4490263;31;34738;-87
2023/06/10 05:49:08;;;;;;;;;;;;;;;22.97;75.79;99494.72;4491760;31;33485;-87
2023/06/10 05:51:36;;;;;;;;;;;;;;;22.94;76.47;99492.09;4497604;31;33574;-87
2023/06/10 05:54:05;;;;;;;;;;;;;;;23.37;73.62;99501.31;4486530;31;32560;-85
2023/06/10 05:56:33;;;;;;;;;;;;;;;22.65;75.37;99499.44;4488226;31;35101;-86
2023/06/10 05:59:00;;;;;;;;;;;;;;;22.65;76.51;99499.44;4496176;31;33540;-90
2023/06/10 06:01:28;;;;;;;;;;;;;;;23.03;73.87;99501.72;4499756;31;33746;-89
2023/06/10 06:03:55;;;;;;;;;;;;;;;23.30;72.61;99494.38;4490430;31;34532;-88
2023/06/10 06:06:23;;;;;;;;;;;;;;;23.70;70.92;99497.41;4501078;31;33641;-88
2023/06/10 06:08:50;;;;;;;;;;;;;;;23.87;68.59;99498.94;4500138;31;33970;-88
2023/06/10 06:11:18;;;;;;;;;;;;;;;23.71;69.84;99503.56;4494619;31;33391;-89
2023/06/10 06:13:47;;;;;;;;;;;;;;;24.17;66.64;99502.06;4490539;31;33911;-88
2023/06/10 06:16:19;;;;;;;;;;;;;;;23.95;68.07;99499.72;4484931;31;32953;-86
2023/06/10 06:18:46;;;;;;;;;;;;;;;23.88;66.50;99493.66;4490142;31;33436;-87
2023/06/10 06:21:14;;;;;;;;;;;;;;;24.22;64.94;99486.97;4494318;31;34313;-88
2023/06/10 06:23:41;;;;;;;;;;;;;;;23.56;67.38;99496.69;4496691;31;34096;-89
2023/06/10 06:26:08;;;;;;;;;;;;;;;22.52;71.55;99496.91;4493121;31;34056;-90
2023/06/10 06:28:36;;;;;;;;;;;;;;;22.26;73.61;99506.81;4500681;31;33010;-88
2023/06/10 06:31:03;;;;;;;;;;;;;;;22.93;70.76;99503.56;4494529;31;34116;-92
2023/06/10 06:33:31;;;;;;;;;;;;;;;23.54;67.64;99504.63;4476476;32;34130;-87
2023/06/10 06:36:00;;;;;;;;;;;;;;;23.71;67.31;99511.50;4498947;31;34899;-86
2023/06/10 06:38:27;;;;;;;;;;;;;;;23.51;68.28;99509.12;4492136;31;31521;-89
2023/06/10 06:40:54;;;;;;;;;;;;;;;23.54;68.21;99514.34;4490962;31;34084;-85
2023/06/10 06:43:22;;;;;;;;;;;;;;;23.24;69.33;99508.53;4492779;31;34091;-88
2023/06/10 06:45:49;;;;;;;;;;;;;;;23.27;69.16;99504.97;4500993;31;34464;-88
2023/06/10 06:48:16;;;;;;;;;;;;;;;23.20;69.87;99517.41;4500492;31;34163;-88
2023/06/10 06:50:44;;;;;;;;;;;;;;;23.15;70.07;99506.88;4500679;31;33600;-86
2023/06/10 06:53:11;;;;;;;;;;;;;;;23.70;69.35;99510.63;4494258;31;33777;-86
2023/06/10 06:55:38;;;;;;;;;;;;;;;23.69;69.14;99514.16;4498688;31;33540;-86
2023/06/10 06:58:06;;;;;;;;;;;;;;;23.93;67.80;99510.34;4496605;31;33409;-88
2023/06/10 07:00:33;;;;;;;;;;;;;;;23.44;70.71;99515.38;4495655;31;34075;-89
2023/06/10 07:03:01;;;;;;;;;;;;;;;23.42;70.32;99514.50;4498162;31;34565;-87
2023/06/10 07:05:28;;;;;;;;;;;;;;;24.04;68.75;99504.87;4490772;31;34958;-87
2023/06/10 07:07:56;;;;;;;;;;;;;;;24.28;66.12;99513.31;4488114;31;33211;-85
2023/06/10 07:10:26;;;;;;;;;;;;;;;24.06;66.72;99513.66;4494067;31;34009;-86
2023/06/10 07:12:54;;;;;;;;;;;;;;;23.78;68.34;99517.56;4490716;31;34880;-85
2023/06/10 07:15:21;;;;;;;;;;;;;;;23.91;67.34;99503.28;4490580;31;34883;-87
2023/06/10 07:17:48;;;;;;;;;;;;;;;23.99;67.28;99516.41;4495093;31;32799;-88
2023/06/10 07:20:16;;;;;;;;;;;;;;;23.90;67.46;99506.84;4488661;31;34029;-85
2023/06/10 07:22:43;;;;;;;;;;;;;;;24.02;66.93;99505.78;4495220;31;34071;-87
2023/06/10 07:25:11;;;;;;;;;;;;;;;24.41;65.34;99509.59;4499909;31;33827;-89
2023/06/10 07:27:38;;;;;;;;;;;;;;;24.46;65.09;99518.34;4494901;31;33282;-90
2023/06/10 07:30:09;;;;;;;;;;;;;;;24.23;65.74;99517.84;4488676;31;33864;-87
2023/06/10 07:32:36;;;;;;;;;;;;;;;24.27;64.82;99508.94;4500040;31;34457;-84
2023/06/10 07:35:03;;;;;;;;;;;;;;;23.89;67.35;99515.66;4492905;31;34281;-86
2023/06/10 07:37:31;;;;;;;;;;;;;;;23.68;66.20;99516.81;4496033;31;33553;-86
2023/06/10 07:39:59;;;;;;;;;;;;;;;24.08;65.04;99522.44;4500341;31;34937;-84
2023/06/10 07:42:26;;;;;;;;;;;;;;;23.57;67.92;99524.88;4492838;31;33838;-86
2023/06/10 07:44:53;;;;;;;;;;;;;;;23.81;65.82;99513.13;4498823;31;34195;-86
2023/06/10 07:47:21;;;;;;;;;;;;;;;23.85;65.99;99529.84;4496082;31;33862;-85
2023/06/10 07:49:48;;;;;;;;;;;;;;;23.92;66.33;99520.94;4500286;31;34891;-83
2023/06/10 07:52:16;;;;;;;;;;;;;;;24.00;66.81;99518.19;4488597;31;33972;-87
2023/06/10 07:54:43;;;;;;;;;;;;;;;24.18;65.54;99517.03;4499323;31;34841;-87
2023/06/10 07:57:10;;;;;;;;;;;;;;;24.34;65.13;99523.84;4497309;31;33171;-85
2023/06/10 07:59:41;;;;;;;;;;;;;;;24.86;63.60;99522.97;4496167;31;35080;-85
2023/06/10 08:02:08;;;;;;;;;;;;;;;24.98;63.98;99526.31;4489255;31;34236;-85
2023/06/10 08:04:36;;;;;;;;;;;;;;;25.02;63.11;99528.87;4491447;31;34171;-86
2023/06/10 08:07:03;;;;;;;;;;;;;;;25.42;61.04;99533.44;4496510;31;32850;-88
2023/06/10 08:09:31;;;;;;;;;;;;;;;25.84;59.99;99535.19;4496398;31;34143;-86
2023/06/10 08:11:58;;;;;;;;;;;;;;;25.78;59.31;99524.72;4493124;31;34128;-88
2023/06/10 08:14:25;;;;;;;;;;;;;;;25.19;60.75;99520.59;4490356;31;34104;-88
2023/06/10 08:16:53;;;;;;;;;;;;;;;25.55;58.83;99527.87;4497942;31;33620;-88
2023/06/10 08:19:21;;;;;;;;;;;;;;;26.02;58.64;99518.91;4496696;31;34331;-88
2023/06/10 08:21:51;;;;;;;;;;;;;;;26.00;57.29;99520.72;4480050;31;33596;-87
2023/06/10 08:24:19;;;;;;;;;;;;;;;26.03;58.28;99518.00;4496462;31;34056;-88
2023/06/10 08:26:47;;;;;;;;;;;;;;;26.85;56.31;99516.91;4494056;31;33701;-87
2023/06/10 08:29:14;;;;;;;;;;;;;;;27.48;54.32;99516.97;4493599;31;34618;-85
2023/06/10 08:31:43;;;;;;;;;;;;;;;27.92;51.81;99511.28;4493695;31;33861;-86
2023/06/10 08:34:12;;;;;;;;;;;;;;;28.09;51.04;99508.09;4491780;31;36454;-88
2023/06/10 08:36:39;;;;;;;;;;;;;;;28.37;50.40;99505.37;4493157;31;33987;-88
2023/06/10 08:39:07;;;;;;;;;;;;;;;28.34;50.15;99509.03;4496279;31;34785;-84
2023/06/10 08:41:35;;;;;;;;;;;;;;;28.41;49.30;99499.91;4496072;31;33405;-87
2023/06/10 08:44:09;;;;;;;;;;;;;;;28.44;48.90;99501.59;4495647;31;34642;-87
2023/06/10 08:46:37;;;;;;;;;;;;;;;28.96;48.16;99509.62;4487324;31;33845;-91
2023/06/10 08:49:06;;;;;;;;;;;;;;;29.16;47.89;99507.13;4498027;31;34193;-87
2023/06/10 08:51:34;;;;;;;;;;;;;;;29.21;47.25;99499.00;4490776;31;33715;-89
2023/06/10 08:54:04;;;;;;;;;;;;;;;28.89;47.03;99500.09;4493940;31;34197;-88
2023/06/10 08:56:31;;;;;;;;;;;;;;;29.56;46.33;99496.78;4494793;31;33710;-87
2023/06/10 08:58:58;;;;;;;;;;;;;;;30.01;44.42;99487.94;4494465;31;34304;-86
2023/06/10 09:01:26;;;;;;;;;;;;;;;29.71;44.49;99481.97;4493070;31;34238;-84
2023/06/10 09:03:56;;;;;;;;;;;;;;;30.09;43.20;99479.62;4496439;31;35839;-84
2023/06/10 09:06:24;;;;;;;;;;;;;;;30.17;44.69;99473.03;4492280;31;31933;-87
2023/06/10 09:08:52;;;;;;;4.40;3.03;;;;;;;29.66;42.84;99481.28;4495605;31;34127;-85
2023/06/10 09:11:19;;;;;;;6.05;3.55;;;;;;;29.89;43.63;99473.28;4491258;31;34414;-85
2023/06/10 09:13:47;;;;;;;5.35;3.50;;;;;;;30.07;44.69;99470.78;4497595;31;33862;-85
2023/06/10 09:16:15;;;;;;;6.05;3.60;;;;;;;29.47;45.87;99475.78;4499468;31;34047;-86
2023/06/10 09:18:43;;;;;;;6.62;3.90;;;;;;;28.68;45.52;99470.59;4498856;31;34480;-82
2023/06/10 10:53:08;;;;;;;13.48;12.02;;;;;;;24.54;64.21;99444.09;4492037;31;841700;-85
2023/06/10 10:55:36;;;;;;;14.38;12.02;;;;;;;24.54;64.21;99444.09;4500527;31;33451;-86
2023/06/10 10:58:05;;;;;;;14.75;12.15;;;;;;;24.65;63.30;99441.28;4498238;31;33407;-83
2023/06/10 11:00:35;;;;;;;13.98;11.88;;;;;;;24.93;61.67;99438.94;4497256;31;33713;-85
2023/06/10 11:03:02;;;;;;;13.45;12.05;;;;;;;25.31;60.21;99440.84;4507303;31;33303;-84
2023/06/10 11:05:38;;;;;;;12.65;10.73;;;;;;;25.27;60.39;99438.31;4500251;31;33679;-85
2023/06/10 11:08:08;;;;;;;11.27;9.95;;;;;;;25.25;60.54;99434.81;4495659;31;33399;-86
2023/06/10 11:10:40;;;;;;;14.77;10.30;;;;;;;25.41;58.16;99438.00;4485517;31;34202;-85
2023/06/10 11:13:10;;;;;;;10.93;9.73;;;;;;;25.68;58.05;99428.56;4496369;31;33814;-85
2023/06/10 11:15:50;;;;;;;10.10;8.93;;;;;;;25.97;57.25;99425.25;4510325;31;33931;-85
2023/06/10 11:18:25;;;;;;;10.77;9.68;;;;;;;26.22;56.17;99420.22;4495365;31;33090;-84
2023/06/10 11:20:55;;;;;;;10.80;9.60;;;;;;;25.99;54.97;99411.94;4474282;32;34424;-84
2023/06/10 11:23:32;;;;;;;11.90;8.82;;;;;;;25.88;56.00;99412.16;4481934;32;32581;-86
2023/06/10 11:26:21;;;;;;;9.77;7.12;;;;;;;26.48;55.28;99405.38;4505599;31;33049;-86
2023/06/10 11:28:54;;;;;;;9.35;8.20;;;;;;;26.40;52.84;99412.69;4486084;31;31666;-84
2023/06/10 11:31:23;;;;;;;8.57;7.70;;;;;;;26.16;54.79;99408.88;4501706;31;33006;-85
2023/06/10 11:33:54;;;;;;;9.05;7.90;;;;;;;26.47;52.75;99412.47;4496053;31;33327;-84
2023/06/10 11:36:23;;;;;;;12.18;8.98;;;;;;;27.21;50.13;99401.59;4497384;31;33340;-85
2023/06/10 11:38:57;;;;;;;9.00;7.72;;;;;;;27.45;51.20;99402.69;4503492;31;33499;-87
2023/06/10 11:41:26;;;;;;;9.80;8.13;;;;;;;27.15;51.17;99412.41;4503029;31;33628;-85
2023/06/10 11:43:57;;;;;;;9.10;7.68;;;;;;;27.17;50.90;99406.13;4496887;31;33834;-85
2023/06/10 11:46:28;;;;;;;9.00;7.75;;;;;;;27.68;49.92;99398.41;4494572;31;33562;-87
2023/06/10 11:48:57;;;;;;;9.07;7.68;;;;;;;28.10;48.35;99395.31;4494568;31;33663;-88
2023/06/10 11:51:26;;;;;;;8.30;7.40;;;;;;;27.57;49.35;99391.66;4495215;31;33267;-86
2023/06/10 11:53:54;;;;;;;7.87;7.07;;;;;;;28.09;47.07;99390.94;4494955;32;33610;-86
2023/06/10 11:56:23;;;;;;;8.30;7.40;;;;;;;28.29;47.22;99388.44;4495405;31;33558;-87
2023/06/10 11:58:57;;;;;;;8.70;7.80;;;;;;;28.74;46.75;99395.78;4494723;32;33639;-87
2023/06/10 12:01:26;;;;;;;9.10;7.72;;;;;;;28.34;49.39;99389.16;4494610;31;33680;-86
2023/06/10 12:04:08;;;;;;;8.07;7.10;;;;;;;27.85;48.02;99388.09;4481076;31;33804;-87
2023/06/10 12:06:40;;;;;;;8.90;7.28;;;;;;;27.86;46.30;99387.19;4478358;31;32546;-88
2023/06/10 12:09:20;;;;;;;9.43;7.80;;;;;;;28.50;45.33;99399.28;4490883;31;33479;-87
2023/06/10 12:12:02;;;;;;;8.85;7.95;;;;;;;25.99;52.71;99391.59;4485650;31;33111;-87
2023/06/10 12:14:59;;;;;;;8.90;7.90;;;;;;;25.63;54.95;99372.97;4484148;32;33369;-87
2023/06/10 12:17:31;;;;;;;8.90;8.00;;;;;;;27.47;49.21;99379.56;4476104;32;32304;-87
2023/06/10 12:20:08;;;;;;;8.95;7.15;;;;;;;27.85;48.78;99377.47;4483814;32;34110;-86
2023/06/10 12:22:43;;;;;;;9.02;7.68;;;;;;;25.39;56.04;99378.84;4473318;31;32895;-86
2023/06/10 12:25:11;;;;;;;9.43;8.23;;;;;;;26.58;52.05;99382.09;4489317;31;33168;-85
2023/06/10 12:27:40;;;;;;;9.85;7.55;;;;;;;26.81;52.43;99379.72;4484183;32;33012;-87
2023/06/10 12:30:08;;;;;;;9.55;7.90;;;;;;;26.63;53.75;99378.44;4480321;32;33255;-87
2023/06/10 12:32:37;;;;;;;8.70;7.70;;;;;;;26.77;51.02;99367.44;4484972;31;34455;-87
2023/06/10 12:35:06;;;;;;;10.02;7.65;;;;;;;26.63;52.24;99372.25;4493196;31;32799;-87
2023/06/10 12:37:34;;;;;;;8.60;7.70;;;;;;;26.67;50.91;99365.94;4483747;32;34364;-87
2023/06/10 12:40:08;;;;;;;9.18;8.07;;;;;;;26.57;52.76;99359.13;4483705;32;33294;-87
2023/06/10 12:42:37;;;;;;;10.70;9.10;;;;;;;26.54;54.18;99367.16;4471180;31;33288;-85
2023/06/10 12:45:07;;;;;;;10.77;9.60;;;;;;;26.33;54.48;99358.88;4485933;31;33192;-87
2023/06/10 12:47:38;;;;;;;9.65;8.63;;;;;;;26.22;56.48;99355.63;4495181;31;32973;-87
2023/06/10 12:50:07;;;;;;;9.95;8.85;;;;;;;25.77;54.16;99347.88;4472605;31;31813;-86
2023/06/10 12:52:35;;;;;;;8.35;7.35;;;;;;;25.86;52.56;99342.34;4484111;32;33364;-86
2023/06/10 12:55:04;;;;;;;8.90;8.00;;;;;;;25.30;52.86;99349.00;4472830;31;33181;-86
2023/06/10 12:57:32;;;;;;;8.48;7.68;;;;;;;25.79;54.08;99346.09;4485297;31;32943;-85
2023/06/10 13:00:03;;;;;;;10.10;7.70;;;;;;;26.47;51.44;99339.91;4484122;32;33417;-87
2023/06/10 13:02:33;;;;;;;9.05;7.93;;;;;;;26.37;53.94;99328.66;4490581;31;34000;-88
2023/06/10 13:05:02;;;;;;;7.22;6.50;;;;;;;26.64;53.37;99326.19;4487406;31;33522;-87
2023/06/10 13:07:30;;;;;;;7.00;6.30;;;;;;;27.13;50.55;99327.38;4470817;32;33012;-87
2023/06/10 13:09:58;;;;;;;7.90;5.93;;;;;;;27.24;49.04;99322.66;4496552;31;33886;-85
2023/06/10 13:12:28;;;;;;;9.23;5.97;;;;;;;26.79;48.85;99320.44;4496873;31;33626;-86
2023/06/10 13:15:14;;;;;;;6.93;5.43;;;;;;;27.25;49.35;99318.19;4482619;32;32780;-85
2023/06/10 13:17:49;;;;;;;6.68;4.15;;;;;;;27.87;48.08;99319.72;4484676;31;32945;-85
2023/06/10 13:20:18;;;;;;;4.97;4.00;;;;;;;27.74;47.35;99326.38;4471212;31;32926;-85
2023/06/10 13:22:47;;;;;;;6.40;4.22;;;;;;;28.11;46.67;99325.19;4491171;31;34670;-85
2023/06/10 13:25:15;;;;;;;4.03;3.10;;;;;;;28.46;43.74;99323.06;4487252;31;33390;-85
2023/06/10 13:27:43;;;;;;;5.50;3.73;;;;;;;28.87;44.44;99320.69;4489674;31;33385;-84
2023/06/10 13:30:11;;;;;;;5.60;3.70;;;;;;;28.29;47.44;99321.84;4484930;31;33662;-86
2023/06/10 13:32:39;;;;;;;4.97;3.80;;;;;;;28.49;45.54;99317.59;4476992;32;31642;-85
2023/06/10 13:35:07;;;;;;;4.65;3.47;;;;;;;27.63;49.00;99318.75;4494017;31;33956;-83
2023/06/10 13:37:36;;;;;;;5.40;3.60;;;;;;;27.90;48.45;99311.69;4497851;31;33155;-84
2023/06/10 13:40:05;;;;;;;4.82;3.47;;;;;;;27.39;49.24;99304.44;4486501;31;34627;-85
2023/06/10 13:42:33;;;;;;;4.90;3.70;;;;;;;27.19;51.56;99308.56;4487839;31;33434;-86
2023/06/10 13:45:00;;;;;;;5.20;3.80;;;;;;;27.29;50.76;99313.66;4485008;31;33527;-84
2023/06/10 13:47:28;;;;;;;6.70;3.70;;;;;;;27.03;52.60;99312.63;4488198;31;35416;-84
2023/06/10 13:49:56;;;;;;;6.22;3.58;;;;;;;27.13;52.13;99314.09;4489489;31;34526;-84
2023/06/10 13:52:23;;;;;;;4.47;3.50;;;;;;;27.38;50.92;99308.91;4496353;31;34628;-83
2023/06/10 13:54:59;;;;;;;5.97;3.47;;;;;;;27.64;50.07;99305.41;4484719;31;33095;-83
2023/06/10 13:57:27;;;;;;;3.97;2.87;;;;;;;27.23;50.85;99304.03;4487076;31;33227;-84
2023/06/10 13:59:56;;;;;;;4.93;2.92;;;;;;;27.10;50.42;99298.25;4473141;31;32723;-83
2023/06/10 14:02:26;;;;;;;3.97;3.00;;;;;;;26.00;52.96;99305.78;4483287;31;34328;-84
2023/06/10 14:04:54;;;;;;;6.62;3.28;;;;;;;26.29;52.08;99307.63;4491909;31;33727;-84